Time;durP1;ratioP1;P1;durP2;ratioP2;P2;SDS_P1;SDS_P2;PMS_P1;PMS_P2;Temp;Humidity;BMP_temperature;BMP_pressure;BME280_temperature;BME280_humidity;BME280_pressure;Samples;Min_cycle;Max_cycle;Signal;HPM_P1;HPM_P2
2023/05/15 00:01:39;;;;;;;3.80;3.50;;;17.70;74.80;;;;;;5053393;28;20452;-76
2023/05/15 00:04:06;;;;;;;4.30;3.90;;;17.70;74.60;;;;;;5053364;28;20795;-77
2023/05/15 00:06:33;;;;;;;4.43;4.03;;;17.70;74.70;;;;;;5053252;28;20450;-75
2023/05/15 00:09:01;;;;;;;4.80;4.30;;;17.70;74.70;;;;;;5052579;28;20472;-76
2023/05/15 00:11:29;;;;;;;4.00;3.70;;;17.60;74.80;;;;;;5017715;28;20440;-75
2023/05/15 00:13:56;;;;;;;5.33;3.70;;;17.60;74.80;;;;;;5052959;28;20460;-77
2023/05/15 00:16:24;;;;;;;4.90;3.87;;;17.50;74.60;;;;;;5053288;28;20455;-76
2023/05/15 00:18:50;;;;;;;3.70;3.40;;;17.50;74.80;;;;;;5052918;28;20674;-75
2023/05/15 00:21:17;;;;;;;4.47;3.60;;;17.50;74.90;;;;;;5053122;28;20455;-75
2023/05/15 00:23:46;;;;;;;4.40;4.00;;;17.50;74.90;;;;;;5052842;28;20452;-76
2023/05/15 00:26:14;;;;;;;3.80;3.50;;;17.40;74.90;;;;;;5017608;28;20835;-75
2023/05/15 00:28:42;;;;;;;4.80;3.90;;;17.40;75.00;;;;;;5051521;28;20945;-77
2023/05/15 00:31:11;;;;;;;4.20;3.90;;;17.30;75.00;;;;;;5052692;28;20480;-76
2023/05/15 00:33:38;;;;;;;4.13;3.80;;;17.30;75.10;;;;;;5052739;28;20526;-77
2023/05/15 00:36:06;;;;;;;4.53;3.83;;;17.30;75.10;;;;;;5052579;28;20480;-76
2023/05/15 00:38:33;;;;;;;8.07;4.10;;;17.30;75.30;;;;;;5052962;28;20491;-74
2023/05/15 00:41:01;;;;;;;4.73;4.33;;;17.30;75.50;;;;;;5052258;28;20448;-75
2023/05/15 00:43:28;;;;;;;4.53;4.13;;;17.30;75.90;;;;;;5000994;28;20452;-76
2023/05/15 00:45:58;;;;;;;4.73;4.33;;;17.30;75.40;;;;;;5052685;28;20450;-77
2023/05/15 00:48:26;;;;;;;4.63;4.23;;;17.20;75.70;;;;;;5052424;28;20450;-77
2023/05/15 00:50:53;;;;;;;4.73;4.10;;;17.20;75.90;;;;;;5034719;28;20463;-76
2023/05/15 00:53:20;;;;;;;4.30;3.90;;;17.10;76.00;;;;;;5052622;28;20443;-75
2023/05/15 00:55:47;;;;;;;4.93;4.13;;;17.10;76.00;;;;;;5052352;28;20495;-76
2023/05/15 00:58:15;;;;;;;6.00;4.50;;;17.10;76.10;;;;;;5052203;28;20476;-77
2023/05/15 01:00:43;;;;;;;4.57;4.17;;;17.10;76.00;;;;;;5052342;28;20892;-76
2023/05/15 01:03:11;;;;;;;4.53;4.13;;;17.20;76.20;;;;;;5052385;28;20535;-76
2023/05/15 01:05:38;;;;;;;4.50;4.10;;;17.10;76.10;;;;;;5052120;28;20543;-76
2023/05/15 01:08:13;;;;;;;4.50;4.10;;;17.10;76.10;;;;;;5034445;28;20466;-76
2023/05/15 01:10:41;;;;;;;4.97;4.33;;;17.10;76.30;;;;;;5052013;28;20474;-75
2023/05/15 01:13:09;;;;;;;4.80;4.40;;;17.10;76.20;;;;;;5051837;28;20459;-76
2023/05/15 01:15:36;;;;;;;4.83;4.43;;;17.20;76.30;;;;;;5033997;28;20480;-75
2023/05/15 01:18:02;;;;;;;4.80;4.40;;;17.10;76.20;;;;;;5034040;28;20466;-75
2023/05/15 01:20:38;;;;;;;4.77;4.37;;;17.10;76.40;;;;;;5051775;28;20454;-74
2023/05/15 01:23:15;;;;;;;5.00;4.50;;;17.10;77.10;;;;;;5051928;28;20983;-76
2023/05/15 01:26:16;;;;;;;4.63;4.23;;;17.10;76.20;;;;;;5051786;28;20447;-75
2023/05/15 01:28:50;;;;;;;4.53;4.13;;;17.10;76.20;;;;;;5042712;28;20452;-76
2023/05/15 01:31:20;;;;;;;4.47;4.17;;;17.00;76.00;;;;;;5051646;28;20444;-76
2023/05/15 01:33:51;;;;;;;4.93;4.47;;;17.00;75.80;;;;;;5051804;28;20958;-76
2023/05/15 01:36:24;;;;;;;4.67;4.27;;;16.90;75.90;;;;;;5052027;28;20484;-76
2023/05/15 01:38:54;;;;;;;8.10;4.77;;;16.90;76.20;;;;;;5051360;28;20843;-75
2023/05/15 01:41:26;;;;;;;4.63;4.23;;;16.90;76.30;;;;;;5051697;28;20448;-77
2023/05/15 01:43:59;;;;;;;5.97;3.90;;;16.90;76.00;;;;;;5051956;28;20829;-77
2023/05/15 01:46:29;;;;;;;4.00;3.70;;;16.80;75.60;;;;;;4999617;28;20448;-76
2023/05/15 01:49:00;;;;;;;5.10;4.27;;;16.90;75.60;;;;;;5051790;28;20455;-76
2023/05/15 01:51:28;;;;;;;4.20;3.80;;;16.80;75.30;;;;;;5051879;28;20447;-76
2023/05/15 01:53:58;;;;;;;4.43;4.03;;;16.80;75.50;;;;;;5051306;28;20448;-77
2023/05/15 01:56:25;;;;;;;4.20;3.80;;;16.80;75.40;;;;;;5051343;28;20498;-76
2023/05/15 01:58:55;;;;;;;4.77;3.93;;;16.80;75.50;;;;;;5050530;28;20502;-76
2023/05/15 02:01:23;;;;;;;4.30;3.90;;;16.70;75.50;;;;;;5051339;28;20459;-76
2023/05/15 02:03:51;;;;;;;4.30;3.90;;;16.70;75.70;;;;;;5050372;28;20547;-76
2023/05/15 02:06:19;;;;;;;4.60;4.20;;;16.60;75.60;;;;;;5051360;28;20475;-76
2023/05/15 02:08:48;;;;;;;4.63;4.23;;;16.60;76.10;;;;;;5050955;28;20860;-76
2023/05/15 02:11:15;;;;;;;5.00;4.30;;;16.60;76.40;;;;;;5050940;28;20448;-76
2023/05/15 02:13:42;;;;;;;5.20;4.70;;;16.60;76.50;;;;;;5051051;28;21014;-76
2023/05/15 02:16:11;;;;;;;5.33;4.60;;;16.60;76.70;;;;;;5033608;28;20484;-76
2023/05/15 02:18:37;;;;;;;4.93;4.33;;;16.60;76.70;;;;;;5051083;28;20460;-74
2023/05/15 02:21:04;;;;;;;5.53;5.03;;;16.70;76.90;;;;;;5050684;28;20967;-76
2023/05/15 02:23:31;;;;;;;5.40;4.90;;;16.70;76.80;;;;;;5032928;28;20444;-75
2023/05/15 02:26:12;;;;;;;5.73;4.33;;;16.70;76.80;;;;;;5050778;28;20531;-76
2023/05/15 02:28:43;;;;;;;4.87;4.47;;;16.70;77.00;;;;;;5051124;28;20454;-76
2023/05/15 02:31:18;;;;;;;6.33;4.77;;;16.70;76.90;;;;;;5050984;28;20793;-76
2023/05/15 02:33:55;;;;;;;5.17;4.70;;;16.60;76.90;;;;;;5051231;28;20447;-74
2023/05/15 02:36:28;;;;;;;5.13;4.60;;;16.60;77.00;;;;;;5032697;28;20476;-77
2023/05/15 02:38:58;;;;;;;6.00;4.60;;;16.60;76.90;;;;;;5051007;28;20521;-75
2023/05/15 02:41:26;;;;;;;5.03;4.50;;;16.70;76.70;;;;;;5050904;28;20455;-75
2023/05/15 02:43:55;;;;;;;5.00;4.50;;;16.70;76.70;;;;;;5050566;28;21195;-76
2023/05/15 02:46:24;;;;;;;5.10;4.60;;;16.70;76.70;;;;;;5050722;28;20459;-75
2023/05/15 02:48:52;;;;;;;6.17;4.93;;;16.70;76.70;;;;;;5014589;28;20444;-75
2023/05/15 02:51:19;;;;;;;5.60;4.67;;;16.70;77.40;;;;;;5049462;28;20845;-74
2023/05/15 02:53:47;;;;;;;5.27;4.77;;;16.60;76.60;;;;;;5050532;28;20460;-76
2023/05/15 02:56:13;;;;;;;5.03;4.60;;;16.60;76.70;;;;;;5050630;28;20487;-76
2023/05/15 02:58:41;;;;;;;5.23;4.50;;;16.60;76.70;;;;;;5050576;28;20510;-75
2023/05/15 03:01:08;;;;;;;5.17;4.67;;;16.60;76.90;;;;;;5050544;28;20458;-76
2023/05/15 03:03:36;;;;;;;4.67;4.27;;;16.60;76.90;;;;;;5050481;28;20456;-75
2023/05/15 03:06:03;;;;;;;5.30;4.80;;;16.60;77.30;;;;;;5050338;28;20456;-76
2023/05/15 03:08:30;;;;;;;5.10;4.60;;;16.60;77.30;;;;;;5045179;28;20835;-75
2023/05/15 03:10:58;;;;;;;5.90;5.37;;;16.60;77.40;;;;;;5050487;28;20456;-75
2023/05/15 03:13:25;;;;;;;5.10;4.67;;;16.60;77.60;;;;;;5050142;28;20933;-75
2023/05/15 03:15:52;;;;;;;5.53;5.03;;;16.70;77.90;;;;;;5054313;28;21026;-75
2023/05/15 03:18:19;;;;;;;5.43;4.93;;;16.60;78.00;;;;;;5054569;28;20451;-77
2023/05/15 03:20:48;;;;;;;5.30;4.80;;;16.60;78.00;;;;;;5018577;28;20451;-74
2023/05/15 03:23:15;;;;;;;5.10;4.60;;;16.60;78.00;;;;;;5053854;28;20449;-75
2023/05/15 03:25:42;;;;;;;5.10;4.70;;;16.70;78.00;;;;;;5054203;28;20535;-75
2023/05/15 03:28:09;;;;;;;5.83;5.07;;;16.70;78.10;;;;;;5054158;28;20527;-76
2023/05/15 03:30:36;;;;;;;5.77;5.27;;;16.70;78.00;;;;;;5018659;28;20876;-76
2023/05/15 03:33:03;;;;;;;5.40;4.90;;;16.60;78.00;;;;;;5053995;28;20444;-75
2023/05/15 03:35:31;;;;;;;5.47;4.97;;;16.60;78.20;;;;;;5053516;28;20492;-72
2023/05/15 03:37:59;;;;;;;5.60;5.10;;;16.50;78.20;;;;;;5017811;28;20503;-77
2023/05/15 03:40:26;;;;;;;5.50;5.00;;;16.40;78.50;;;;;;5053074;28;20449;-75
2023/05/15 03:42:53;;;;;;;6.40;5.50;;;16.40;78.80;;;;;;5052510;28;20824;-76
2023/05/15 03:45:20;;;;;;;5.40;4.90;;;16.40;78.80;;;;;;5052772;28;20448;-75
2023/05/15 03:47:47;;;;;;;6.27;5.63;;;16.40;78.80;;;;;;5052554;28;20464;-75
2023/05/15 03:50:14;;;;;;;5.50;5.00;;;16.40;78.70;;;;;;5053552;28;20444;-75
2023/05/15 03:52:41;;;;;;;5.13;4.73;;;16.50;78.60;;;;;;5053547;28;20979;-78
2023/05/15 03:55:12;;;;;;;5.53;5.03;;;16.60;78.60;;;;;;5018421;28;20448;-77
2023/05/15 03:57:40;;;;;;;5.60;5.10;;;16.60;78.30;;;;;;5053562;28;20840;-78
2023/05/15 04:00:09;;;;;;;5.90;5.17;;;16.60;78.20;;;;;;5035367;28;20459;-77
2023/05/15 04:02:42;;;;;;;6.53;5.27;;;16.60;78.20;;;;;;5052803;28;20448;-77
2023/05/15 04:05:10;;;;;;;6.10;5.60;;;16.50;78.50;;;;;;5053388;28;20459;-77
2023/05/15 04:07:37;;;;;;;5.90;5.33;;;16.50;78.50;;;;;;5000381;28;20480;-77
2023/05/15 04:10:05;;;;;;;6.10;5.50;;;16.50;78.60;;;;;;5069688;28;20960;-76
2023/05/15 04:12:35;;;;;;;5.17;4.67;;;16.50;78.70;;;;;;5071582;28;20451;-78
2023/05/15 04:15:14;;;;;;;5.97;5.37;;;16.40;79.50;;;;;;5071274;28;20540;-78
2023/05/15 04:17:41;;;;;;;6.57;5.17;;;16.40;79.20;;;;;;5071254;28;20508;-77
2023/05/15 04:20:09;;;;;;;6.10;5.07;;;16.40;78.90;;;;;;5066697;28;20541;-78
2023/05/15 04:22:36;;;;;;;7.63;5.93;;;16.30;79.20;;;;;;5053704;28;20455;-78
2023/05/15 04:25:04;;;;;;;7.70;5.27;;;16.30;79.20;;;;;;5018257;28;20454;-76
2023/05/15 04:27:32;;;;;;;5.97;5.47;;;16.30;79.20;;;;;;5052623;28;20998;-77
2023/05/15 04:30:00;;;;;;;5.60;5.10;;;16.20;79.10;;;;;;5053310;28;21163;-78
2023/05/15 04:32:27;;;;;;;5.70;5.13;;;16.20;79.20;;;;;;5052843;28;20483;-77
2023/05/15 04:34:56;;;;;;;6.13;5.40;;;16.20;79.10;;;;;;5053306;28;20448;-76
2023/05/15 04:37:22;;;;;;;6.50;5.47;;;16.20;79.20;;;;;;5051006;28;20503;-77
2023/05/15 04:39:49;;;;;;;6.00;5.00;;;16.20;79.20;;;;;;5034121;28;20444;-78
2023/05/15 04:42:16;;;;;;;5.63;4.93;;;16.20;79.10;;;;;;5052848;28;20462;-76
2023/05/15 04:44:44;;;;;;;5.23;4.80;;;16.20;79.30;;;;;;5052772;28;20460;-77
2023/05/15 04:47:11;;;;;;;6.00;5.40;;;16.20;79.40;;;;;;5052391;28;20455;-78
2023/05/15 04:49:39;;;;;;;6.07;5.47;;;16.20;79.40;;;;;;5034851;28;20462;-79
2023/05/15 04:52:06;;;;;;;5.93;5.37;;;16.20;79.70;;;;;;5052503;28;21091;-79
2023/05/15 04:54:33;;;;;;;6.33;5.50;;;16.10;79.60;;;;;;5052749;28;20452;-79
2023/05/15 04:57:00;;;;;;;6.83;5.70;;;16.10;79.90;;;;;;5052495;28;20567;-79
2023/05/15 04:59:27;;;;;;;6.27;5.67;;;16.10;80.00;;;;;;5053103;28;20469;-79
2023/05/15 05:01:55;;;;;;;6.53;5.70;;;16.10;80.00;;;;;;5052440;28;20452;-76
2023/05/15 05:04:22;;;;;;;6.13;5.53;;;16.10;80.00;;;;;;5052606;28;20445;-82
2023/05/15 05:06:49;;;;;;;6.53;5.93;;;16.10;80.10;;;;;;5033925;28;20478;-81
2023/05/15 05:09:18;;;;;;;7.97;6.27;;;16.00;80.50;;;;;;5052324;28;20463;-81
2023/05/15 05:11:45;;;;;;;6.33;5.73;;;16.00;80.60;;;;;;5052881;28;20479;-80
2023/05/15 05:14:12;;;;;;;6.83;5.87;;;16.10;80.70;;;;;;5052454;28;20929;-80
2023/05/15 05:16:39;;;;;;;6.40;5.80;;;16.10;80.60;;;;;;5059634;28;20483;-80
2023/05/15 05:19:07;;;;;;;6.13;5.10;;;16.20;80.50;;;;;;5072332;28;20948;-81
2023/05/15 05:21:34;;;;;;;6.00;5.13;;;16.20;80.40;;;;;;5062821;28;20550;-83
2023/05/15 05:24:01;;;;;;;5.43;4.93;;;16.30;80.10;;;;;;5034791;28;20452;-80
2023/05/15 05:26:28;;;;;;;5.67;5.13;;;16.40;80.20;;;;;;5051369;28;20461;-75
2023/05/15 05:28:55;;;;;;;5.60;5.10;;;16.50;80.00;;;;;;5015388;28;20443;-75
2023/05/15 05:31:23;;;;;;;5.67;5.07;;;16.60;79.80;;;;;;5050570;28;20455;-74
2023/05/15 05:33:50;;;;;;;5.30;4.80;;;16.70;79.60;;;;;;5050313;28;20476;-74
2023/05/15 05:36:18;;;;;;;5.87;5.20;;;16.80;79.40;;;;;;5047658;28;20488;-75
2023/05/15 05:38:45;;;;;;;6.10;4.67;;;16.90;79.50;;;;;;5051387;28;20471;-77
2023/05/15 05:41:13;;;;;;;5.50;5.00;;;16.90;79.20;;;;;;5034275;28;20987;-77
2023/05/15 05:43:40;;;;;;;5.23;4.73;;;17.00;78.70;;;;;;5052132;28;20458;-77
2023/05/15 05:46:07;;;;;;;5.27;4.27;;;17.00;78.60;;;;;;5050432;28;20454;-75
2023/05/15 05:48:33;;;;;;;5.37;4.87;;;17.00;78.90;;;;;;5050128;28;20478;-75
2023/05/15 05:51:00;;;;;;;4.90;4.50;;;16.90;78.60;;;;;;5030751;28;20930;-75
2023/05/15 05:53:30;;;;;;;4.37;3.97;;;16.90;79.30;;;;;;4998438;28;20456;-75
2023/05/15 05:55:57;;;;;;;4.33;3.93;;;17.10;79.20;;;;;;5030208;28;20441;-75
2023/05/15 05:58:24;;;;;;;5.20;4.70;;;17.20;78.70;;;;;;5050463;28;20839;-74
2023/05/15 06:00:52;;;;;;;4.10;3.80;;;17.20;78.00;;;;;;5050444;28;20454;-75
2023/05/15 06:03:19;;;;;;;4.70;4.30;;;17.40;78.20;;;;;;5050740;28;20543;-74
2023/05/15 06:05:47;;;;;;;4.70;4.30;;;17.50;77.90;;;;;;5050435;28;20464;-73
2023/05/15 06:08:14;;;;;;;7.40;3.97;;;17.70;77.60;;;;;;5049700;28;20463;-75
2023/05/15 06:10:42;;;;;;;4.30;3.80;;;17.70;76.90;;;;;;5051188;28;20452;-77
2023/05/15 06:13:09;;;;;;;4.10;3.70;;;17.90;76.60;;;;;;5051853;28;20971;-75
2023/05/15 06:15:36;;;;;;;5.23;3.67;;;18.00;76.00;;;;;;5051470;28;20999;-73
2023/05/15 06:18:03;;;;;;;4.13;3.73;;;18.00;76.00;;;;;;5051145;28;20490;-74
2023/05/15 06:20:30;;;;;;;4.10;3.67;;;18.10;76.00;;;;;;5051027;28;20544;-74
2023/05/15 06:22:57;;;;;;;5.67;4.03;;;18.20;75.80;;;;;;5050566;28;20450;-75
2023/05/15 06:25:24;;;;;;;4.10;3.80;;;18.20;75.40;;;;;;5050724;28;20472;-75
2023/05/15 06:27:52;;;;;;;4.30;3.90;;;18.30;75.40;;;;;;5050298;28;21008;-74
2023/05/15 06:30:19;;;;;;;4.50;4.10;;;18.30;75.40;;;;;;5050870;28;20531;-75
2023/05/15 06:32:46;;;;;;;4.57;3.90;;;18.30;76.00;;;;;;5050393;28;20527;-75
2023/05/15 06:35:13;;;;;;;5.10;4.60;;;18.30;75.00;;;;;;5050584;28;20459;-75
2023/05/15 06:37:39;;;;;;;4.90;4.27;;;18.30;74.60;;;;;;5050433;28;20488;-76
2023/05/15 06:40:07;;;;;;;4.17;3.70;;;18.10;74.70;;;;;;5050060;28;20444;-75
2023/05/15 06:42:34;;;;;;;4.77;4.37;;;18.00;75.40;;;;;;5050030;28;20210;-76
2023/05/15 06:45:03;;;;;;;4.70;4.30;;;18.00;75.30;;;;;;5050065;28;20209;-74
2023/05/15 06:47:30;;;;;;;4.00;3.70;;;18.00;75.90;;;;;;5049876;28;20543;-75
2023/05/15 06:49:57;;;;;;;5.90;4.40;;;18.10;75.50;;;;;;5052455;28;20458;-75
2023/05/15 06:52:23;;;;;;;4.53;4.10;;;18.10;74.80;;;;;;5054320;28;20538;-75
2023/05/15 06:54:50;;;;;;;4.70;4.00;;;18.10;74.90;;;;;;5046141;28;20449;-75
2023/05/15 06:57:17;;;;;;;4.17;3.80;;;18.10;74.70;;;;;;5053667;28;20476;-75
2023/05/15 06:59:45;;;;;;;4.77;4.20;;;18.10;74.60;;;;;;5053794;28;20454;-75
2023/05/15 07:02:13;;;;;;;5.10;3.90;;;18.00;74.60;;;;;;5054067;28;20454;-75
2023/05/15 07:04:40;;;;;;;3.80;3.50;;;18.10;74.60;;;;;;5054131;28;20448;-74
2023/05/15 07:07:07;;;;;;;4.27;3.83;;;18.20;75.00;;;;;;5053993;28;20205;-74
2023/05/15 07:09:34;;;;;;;3.87;3.57;;;18.40;74.50;;;;;;5053961;28;20232;-75
2023/05/15 07:12:01;;;;;;;3.60;3.30;;;18.30;73.90;;;;;;5053779;28;20479;-74
2023/05/15 07:14:28;;;;;;;3.97;3.67;;;18.40;74.10;;;;;;5053845;28;20225;-74
2023/05/15 07:16:54;;;;;;;4.33;3.77;;;18.50;73.90;;;;;;5053667;28;20225;-75
2023/05/15 07:19:23;;;;;;;4.40;4.00;;;18.50;73.90;;;;;;5053768;28;20452;-75
2023/05/15 07:21:50;;;;;;;4.03;3.40;;;18.70;73.80;;;;;;5018125;28;20212;-75
2023/05/15 07:24:16;;;;;;;3.73;3.43;;;18.80;73.10;;;;;;5053754;28;20456;-76
2023/05/15 07:26:43;;;;;;;3.90;3.60;;;18.80;72.90;;;;;;5052907;28;20460;-75
2023/05/15 07:29:10;;;;;;;3.83;3.43;;;18.90;73.10;;;;;;5017990;28;20644;-75
2023/05/15 07:31:39;;;;;;;4.60;4.00;;;19.00;72.50;;;;;;5053411;28;20313;-75
2023/05/15 07:34:06;;;;;;;4.20;3.63;;;19.10;72.50;;;;;;5053514;28;20536;-75
2023/05/15 07:36:34;;;;;;;5.60;3.90;;;19.10;72.00;;;;;;5053258;28;20312;-74
2023/05/15 07:39:02;;;;;;;4.60;3.67;;;19.00;71.70;;;;;;5053206;28;20209;-75
2023/05/15 07:41:29;;;;;;;3.77;3.40;;;19.10;72.00;;;;;;5053023;28;20317;-74
2023/05/15 07:43:56;;;;;;;3.90;3.50;;;19.00;71.70;;;;;;5053017;28;20233;-74
2023/05/15 07:46:23;;;;;;;3.90;3.50;;;18.80;71.50;;;;;;5053202;28;20202;-74
2023/05/15 07:48:50;;;;;;;4.43;3.60;;;18.80;72.10;;;;;;5053086;28;20300;-75
2023/05/15 07:51:17;;;;;;;4.57;3.93;;;18.90;72.70;;;;;;5052832;28;20209;-74
2023/05/15 07:53:45;;;;;;;4.23;3.83;;;18.90;72.10;;;;;;5053139;28;20463;-74
2023/05/15 07:56:13;;;;;;;3.93;3.53;;;19.00;72.00;;;;;;5053279;28;20301;-74
2023/05/15 07:58:40;;;;;;;4.93;3.70;;;19.10;72.30;;;;;;5052226;28;20225;-74
2023/05/15 08:01:07;;;;;;;3.70;3.40;;;19.20;72.30;;;;;;5051758;28;20217;-75
2023/05/15 08:03:34;;;;;;;4.13;3.60;;;19.40;72.30;;;;;;5052802;28;20538;-75
2023/05/15 08:06:01;;;;;;;3.67;3.33;;;19.60;72.20;;;;;;5053350;28;20320;-75
2023/05/15 08:08:28;;;;;;;4.80;3.20;;;19.80;70.90;;;;;;5052379;28;20289;-75
2023/05/15 08:10:58;;;;;;;3.80;3.50;;;19.90;70.80;;;;;;5052485;28;20201;-74
2023/05/15 08:13:25;;;;;;;3.30;3.00;;;20.10;70.50;;;;;;5054293;28;20759;-75
2023/05/15 08:15:52;;;;;;;4.00;2.93;;;20.30;70.50;;;;;;5054773;28;20202;-74
2023/05/15 08:18:19;;;;;;;3.20;2.90;;;20.50;69.10;;;;;;5053677;28;20601;-75
2023/05/15 08:20:47;;;;;;;5.33;3.13;;;20.70;69.10;;;;;;5036555;28;20245;-76
2023/05/15 08:23:14;;;;;;;3.20;2.80;;;20.80;67.80;;;;;;5052269;28;20216;-75
2023/05/15 08:25:43;;;;;;;3.30;3.00;;;20.80;66.40;;;;;;5053586;28;20206;-75
2023/05/15 08:28:11;;;;;;;3.10;2.90;;;20.90;66.30;;;;;;5052416;28;20233;-76
2023/05/15 08:30:38;;;;;;;3.63;2.90;;;21.00;66.80;;;;;;5051978;28;20216;-74
2023/05/15 08:33:05;;;;;;;4.53;3.10;;;21.10;66.00;;;;;;5052296;28;20293;-74
2023/05/15 08:35:32;;;;;;;3.60;2.83;;;21.20;65.90;;;;;;5052175;28;20201;-73
2023/05/15 08:37:59;;;;;;;2.97;2.40;;;21.20;65.20;;;;;;5051958;28;20225;-75
2023/05/15 08:40:28;;;;;;;3.30;3.00;;;21.20;65.10;;;;;;5051962;28;20673;-75
2023/05/15 08:42:55;;;;;;;3.13;2.87;;;21.30;65.70;;;;;;5052118;28;20674;-73
2023/05/15 08:45:24;;;;;;;3.97;3.00;;;21.40;64.90;;;;;;5037336;28;20210;-75
2023/05/15 08:47:51;;;;;;;4.03;2.80;;;21.40;64.50;;;;;;5032093;28;20249;-75
2023/05/15 08:50:19;;;;;;;3.23;2.93;;;21.40;65.60;;;;;;5031745;28;20210;-75
2023/05/15 08:52:47;;;;;;;4.47;2.73;;;21.40;63.60;;;;;;5014181;28;20210;-75
2023/05/15 08:55:15;;;;;;;3.33;3.03;;;21.30;62.80;;;;;;5032056;28;20217;-74
2023/05/15 08:57:43;;;;;;;3.60;3.30;;;21.30;62.20;;;;;;5031491;28;20230;-74
2023/05/15 09:00:13;;;;;;;3.30;3.00;;;21.40;63.20;;;;;;5031781;28;20572;-75
2023/05/15 09:02:42;;;;;;;3.80;3.40;;;21.30;62.90;;;;;;5031765;28;20210;-75
2023/05/15 09:05:10;;;;;;;3.33;3.03;;;21.30;62.60;;;;;;5031649;28;20202;-74
2023/05/15 09:07:39;;;;;;;3.30;2.80;;;21.30;62.80;;;;;;5031690;28;20225;-75
2023/05/15 09:10:08;;;;;;;3.40;3.00;;;21.30;62.90;;;;;;5031422;28;20690;-76
2023/05/15 09:12:38;;;;;;;3.07;2.77;;;21.50;62.50;;;;;;5031201;28;20209;-75
2023/05/15 09:15:09;;;;;;;2.67;2.47;;;21.60;60.80;;;;;;5031537;28;20214;-74
2023/05/15 09:17:36;;;;;;;3.13;2.80;;;21.60;60.60;;;;;;5031332;28;20313;-75
2023/05/15 09:20:06;;;;;;;3.93;3.50;;;21.70;61.40;;;;;;5014085;28;20201;-75
2023/05/15 09:22:35;;;;;;;3.80;2.73;;;21.80;60.00;;;;;;5031241;28;20315;-75
2023/05/15 09:25:03;;;;;;;3.73;2.80;;;21.80;61.40;;;;;;5031256;28;20549;-75
2023/05/15 09:27:30;;;;;;;3.20;2.77;;;22.00;60.60;;;;;;5031836;28;20306;-75
2023/05/15 09:30:12;;;;;;;3.53;2.60;;;22.10;59.60;;;;;;5032201;28;20214;-72
2023/05/15 09:32:41;;;;;;;2.80;2.60;;;22.20;59.10;;;;;;5031947;28;20908;-75
2023/05/15 09:35:35;;;;;;;3.00;2.60;;;22.20;57.90;;;;;;5032151;28;20211;-74
2023/05/15 09:38:03;;;;;;;3.53;2.57;;;22.40;58.10;;;;;;5032075;28;20222;-74
2023/05/15 09:40:32;;;;;;;4.30;2.40;;;22.60;58.20;;;;;;5031788;28;20206;-74
2023/05/15 09:43:01;;;;;;;2.97;2.77;;;22.80;57.60;;;;;;5031963;28;20210;-74
2023/05/15 09:45:28;;;;;;;3.47;2.60;;;22.70;55.50;;;;;;5047152;28;20736;-75
2023/05/15 09:47:56;;;;;;;2.47;2.27;;;22.70;56.10;;;;;;5051611;28;20296;-75
2023/05/15 09:50:33;;;;;;;2.57;2.37;;;22.80;56.30;;;;;;5051320;28;20225;-75
2023/05/15 09:53:03;;;;;;;2.80;2.50;;;23.00;57.50;;;;;;5051239;28;20206;-74
2023/05/15 09:55:32;;;;;;;2.37;2.17;;;23.10;56.10;;;;;;5051402;28;20241;-74
2023/05/15 09:58:07;;;;;;;2.93;2.50;;;23.20;57.40;;;;;;5051424;28;20229;-73
2023/05/15 10:00:37;;;;;;;2.70;2.50;;;23.40;55.70;;;;;;5051469;28;20680;-75
2023/05/15 10:06:26;;;;;;;2.80;2.60;;;23.40;53.80;;;;;;5048723;28;20260;-74
2023/05/15 10:08:56;;;;;;;2.87;2.40;;;23.50;55.20;;;;;;4968200;28;20216;-74
2023/05/15 10:11:24;;;;;;;2.80;2.60;;;23.50;54.90;;;;;;5052194;28;20228;-74
2023/05/15 10:13:54;;;;;;;2.77;2.57;;;23.70;55.90;;;;;;4907414;22;20248;-74
2023/05/15 10:16:22;;;;;;;2.93;2.60;;;23.80;55.90;;;;;;5074155;28;20809;-75
2023/05/15 10:18:56;;;;;;;2.70;2.50;;;23.80;55.70;;;;;;5081522;28;20206;-74
2023/05/15 10:21:25;;;;;;;2.50;2.30;;;24.00;56.60;;;;;;5052576;28;20401;-73
2023/05/15 10:23:59;;;;;;;2.73;2.47;;;24.10;56.40;;;;;;5002560;28;20221;-75
2023/05/15 10:26:33;;;;;;;3.17;2.40;;;24.30;55.60;;;;;;5058162;28;20199;-74
2023/05/15 10:29:01;;;;;;;3.00;2.80;;;24.40;55.50;;;;;;5055835;28;20259;-76
2023/05/15 10:31:31;;;;;;;2.80;2.60;;;24.50;54.40;;;;;;5051197;28;20216;-74
2023/05/15 10:34:00;;;;;;;2.47;2.27;;;24.50;53.60;;;;;;5051977;28;20295;-75
2023/05/15 10:36:31;;;;;;;2.43;2.23;;;24.50;53.90;;;;;;5052107;28;20185;-74
2023/05/15 10:39:00;;;;;;;2.53;2.33;;;24.60;52.90;;;;;;5034492;28;20617;-74
2023/05/15 10:41:32;;;;;;;2.20;2.10;;;24.60;50.70;;;;;;5051721;28;20235;-75
2023/05/15 10:44:00;;;;;;;2.50;2.30;;;24.60;51.70;;;;;;5051929;28;20237;-75
2023/05/15 10:46:33;;;;;;;4.50;2.10;;;24.60;52.80;;;;;;5050678;28;20229;-75
2023/05/15 10:49:00;;;;;;;2.93;2.60;;;24.80;53.30;;;;;;5052107;28;20217;-75
2023/05/15 10:51:31;;;;;;;2.70;2.10;;;24.90;51.90;;;;;;5051741;28;20206;-74
2023/05/15 10:54:02;;;;;;;2.50;2.30;;;24.90;51.70;;;;;;5052392;28;20258;-75
2023/05/15 10:56:33;;;;;;;2.67;2.47;;;24.90;52.50;;;;;;5051157;28;20693;-74
2023/05/15 10:59:07;;;;;;;2.30;2.10;;;25.10;52.70;;;;;;5052010;28;20609;-74
2023/05/15 11:01:35;;;;;;;2.50;2.30;;;25.20;50.20;;;;;;5051833;28;20206;-73
2023/05/15 11:04:13;;;;;;;2.10;1.90;;;25.40;52.40;;;;;;5051490;28;20768;-74
2023/05/15 11:06:42;;;;;;;2.53;2.33;;;25.60;50.80;;;;;;5050473;28;20201;-73
2023/05/15 11:09:37;;;;;;;2.00;1.90;;;25.70;50.90;;;;;;5048961;28;20193;-74
2023/05/15 11:12:07;;;;;;;3.03;2.23;;;25.70;48.90;;;;;;5049435;28;20232;-74
2023/05/15 11:14:37;;;;;;;2.10;1.93;;;25.70;50.10;;;;;;5051600;28;20260;-75
2023/05/15 11:17:07;;;;;;;2.40;2.20;;;25.70;49.60;;;;;;5050716;28;20241;-73
2023/05/15 11:19:53;;;;;;;2.97;2.40;;;25.60;49.60;;;;;;5051229;28;20221;-74
2023/05/15 11:22:30;;;;;;;3.43;2.40;;;25.50;49.20;;;;;;5049994;28;20265;-73
2023/05/15 11:25:01;;;;;;;2.37;2.17;;;25.40;48.40;;;;;;5051866;28;20190;-74
2023/05/15 11:27:33;;;;;;;2.60;2.37;;;25.20;48.70;;;;;;5050680;28;20248;-74
2023/05/15 11:30:11;;;;;;;2.03;1.90;;;25.00;48.40;;;;;;5051883;28;20233;-74
2023/05/15 11:32:58;;;;;;;2.90;2.17;;;25.00;50.20;;;;;;5051768;28;20654;-74
2023/05/15 11:35:31;;;;;;;2.40;2.10;;;25.10;49.90;;;;;;5049585;28;20295;-74
2023/05/15 11:37:59;;;;;;;2.30;2.10;;;24.90;48.80;;;;;;5055801;28;20224;-74
2023/05/15 11:40:33;;;;;;;2.30;1.87;;;24.60;49.80;;;;;;5055686;28;20325;-74
2023/05/15 11:43:02;;;;;;;1.70;1.60;;;24.10;50.60;;;;;;5055847;28;20284;-74
2023/05/15 11:45:35;;;;;;;2.40;2.03;;;23.90;51.60;;;;;;5054940;28;20237;-74
2023/05/15 11:48:05;;;;;;;2.30;2.10;;;23.80;52.00;;;;;;5054423;28;20305;-74
2023/05/15 11:50:34;;;;;;;2.60;2.10;;;23.30;52.00;;;;;;5054859;28;20205;-74
2023/05/15 11:53:07;;;;;;;2.93;2.47;;;22.90;53.90;;;;;;5039821;28;20292;-74
2023/05/15 11:55:37;;;;;;;2.60;2.40;;;22.70;57.00;;;;;;5034320;28;20314;-74
2023/05/15 11:58:12;;;;;;;3.23;2.63;;;22.70;57.90;;;;;;5034301;28;20653;-74
2023/05/15 12:00:39;;;;;;;3.07;2.73;;;22.60;59.20;;;;;;5034551;28;20293;-74
2023/05/15 12:03:09;;;;;;;3.47;2.77;;;22.30;59.60;;;;;;5034526;28;20226;-74
2023/05/15 12:05:36;;;;;;;3.47;2.70;;;22.10;61.10;;;;;;4985443;28;20293;-74
2023/05/15 12:08:03;;;;;;;2.63;2.43;;;21.90;60.70;;;;;;5042792;28;20206;-75
2023/05/15 12:10:40;;;;;;;2.80;2.60;;;21.90;61.90;;;;;;5054500;28;20229;-74
2023/05/15 12:13:11;;;;;;;2.50;2.30;;;21.90;61.90;;;;;;5053198;28;20229;-74
2023/05/15 12:15:39;;;;;;;2.90;2.60;;;21.90;60.70;;;;;;5003147;28;20317;-74
2023/05/15 12:18:10;;;;;;;2.50;2.30;;;21.90;58.70;;;;;;5054138;28;20240;-74
2023/05/15 12:20:43;;;;;;;2.50;2.30;;;21.90;59.20;;;;;;5054300;28;20704;-74
2023/05/15 12:23:10;;;;;;;2.40;2.20;;;21.80;61.00;;;;;;5053525;28;20283;-75
2023/05/15 12:25:39;;;;;;;2.67;2.20;;;21.90;61.60;;;;;;5054391;28;20202;-75
2023/05/15 12:28:06;;;;;;;3.10;2.37;;;22.10;60.20;;;;;;5054410;28;20229;-74
2023/05/15 12:30:36;;;;;;;2.43;2.27;;;22.20;59.80;;;;;;5053321;28;20308;-74
2023/05/15 12:33:05;;;;;;;2.50;2.27;;;22.20;60.20;;;;;;5053910;28;20315;-74
2023/05/15 12:35:36;;;;;;;2.40;2.20;;;22.40;60.20;;;;;;5052877;28;20213;-74
2023/05/15 12:38:04;;;;;;;2.53;2.20;;;22.60;60.00;;;;;;5053742;28;20236;-74
2023/05/15 12:40:35;;;;;;;2.63;2.40;;;22.60;58.80;;;;;;5054073;28;20237;-74
2023/05/15 12:43:07;;;;;;;2.40;2.20;;;22.80;59.40;;;;;;5054335;28;20186;-75
2023/05/15 12:45:37;;;;;;;2.40;2.20;;;22.90;57.90;;;;;;5052889;28;20616;-75
2023/05/15 12:48:06;;;;;;;2.57;2.33;;;23.00;56.10;;;;;;5052892;28;20313;-75
2023/05/15 12:50:35;;;;;;;2.33;2.13;;;23.10;56.00;;;;;;5052644;28;20301;-74
2023/05/15 12:53:04;;;;;;;2.60;2.00;;;23.20;54.20;;;;;;5053954;28;20213;-74
2023/05/15 12:55:35;;;;;;;2.57;1.97;;;23.40;53.80;;;;;;5053607;28;20222;-74
2023/05/15 12:58:06;;;;;;;2.37;2.03;;;23.50;52.70;;;;;;5053521;28;20233;-74
2023/05/15 13:00:35;;;;;;;2.33;2.00;;;23.60;53.10;;;;;;5053598;28;20193;-74